This is the latest recevied weather packets stored in our database for station/object 9W2SSS-1. If no packets are shown the sender has not sent any weather packets the latest 10 day(s).
| Time | Temp. | Humidity | Pressure | Rain* | Wind** | Luminosity | Snow |
|---|---|---|---|---|---|---|---|
| 1777348986 | 38.33° C | 44% | 1008.6 hPa | - | - | - | - |
| 1777347786 | 37.78° C | 44% | 1008.8 hPa | - | - | - | - |
| 1777346586 | 39.44° C | 42% | 1009 hPa | - | - | - | - |
| 1777345386 | 39.44° C | 42% | 1009.2 hPa | - | - | - | - |
| 1777344185 | 39.44° C | 43% | 1009.4 hPa | - | - | - | - |
| 1777342985 | 39.44° C | 43% | 1009.3 hPa | - | - | - | - |
| 1777341785 | 38.33° C | 44% | 1009.6 hPa | - | - | - | - |
| 1777340585 | 39.44° C | 43% | 1009.5 hPa | - | - | - | - |
| 1777339385 | 39.44° C | 42% | 1009.4 hPa | - | - | - | - |
| 1777338185 | 38.89° C | 44% | 1009.1 hPa | - | - | - | - |
| 1777336985 | 37.78° C | 45% | 1008.9 hPa | - | - | - | - |
| 1777335784 | 36.67° C | 48% | 1008.4 hPa | - | - | - | - |
| 1777334584 | 33.89° C | 54% | 1008.2 hPa | - | - | - | - |
| 1777333384 | 30° C | 69% | 1008 hPa | - | - | - | - |
| 1777332184 | 28.89° C | 70% | 1007.8 hPa | - | - | - | - |
| 1777330984 | 28.89° C | 70% | 1007.4 hPa | - | - | - | - |
| 1777328586 | 28.33° C | 71% | 1007.1 hPa | - | - | - | - |
| 1777327386 | 28.33° C | 69% | 1006.8 hPa | - | - | - | - |
| 1777326186 | 28.33° C | 69% | 1006.8 hPa | - | - | - | - |
| 1777324986 | 28.33° C | 69% | 1006.8 hPa | - | - | - | - |
| 1777323786 | 28.33° C | 69% | 1006.9 hPa | - | - | - | - |
| 1777322586 | 28.33° C | 67% | 1006.8 hPa | - | - | - | - |
| 1777321386 | 27.78° C | 67% | 1006.8 hPa | - | - | - | - |
| 1777320186 | 27.22° C | 65% | 1006.9 hPa | - | - | - | - |
| 1777318985 | 27.78° C | 66% | 1006.9 hPa | - | - | - | - |
* Rain since midnight (hover to see other rain measurements)
** Current wind speed in m/s (hover to see current wind gust speed)